Time;durP1;ratioP1;P1;durP2;ratioP2;P2;SDS_P1;SDS_P2;PMS_P1;PMS_P2;Temp;Humidity;BMP_temperature;BMP_pressure;BME280_temperature;BME280_humidity;BME280_pressure;Samples;Min_cycle;Max_cycle;Signal;HPM_P1;HPM_P2
2022/03/23 00:01:42;;;;;;;32.28;19.98;;;;;;;8.90;54.84;102743.16;3577979;40;20056;-62
2022/03/23 00:04:08;;;;;;;35.40;21.70;;;;;;;8.90;55.33;102739.59;3576689;40;20056;-63
2022/03/23 00:06:34;;;;;;;33.47;19.70;;;;;;;8.84;54.21;102738.81;3577460;40;20488;-62
2022/03/23 00:09:00;;;;;;;35.85;19.92;;;;;;;8.81;54.88;102744.25;3576796;40;20119;-62
2022/03/23 00:11:26;;;;;;;33.45;21.10;;;;;;;8.62;54.65;102715.25;3580007;40;20043;-63
2022/03/23 00:13:52;;;;;;;34.70;20.83;;;;;;;8.65;55.36;102741.97;3577838;40;20385;-62
2022/03/23 00:16:18;;;;;;;37.22;22.17;;;;;;;8.62;55.39;102744.72;3576447;40;20349;-62
2022/03/23 00:18:43;;;;;;;31.65;21.13;;;;;;;8.56;55.65;102743.97;3576139;40;20055;-63
2022/03/23 00:21:09;;;;;;;38.45;22.80;;;;;;;8.54;55.83;102740.44;3579282;40;20295;-62
2022/03/23 00:23:34;;;;;;;34.45;21.80;;;;;;;8.47;55.98;102738.81;3579523;40;20056;-62
2022/03/23 00:26:01;;;;;;;37.92;23.10;;;;;;;8.42;56.11;102740.69;3577284;40;20053;-62
2022/03/23 00:28:27;;;;;;;33.20;22.13;;;;;;;8.38;56.07;102744.38;3578520;40;20048;-62
2022/03/23 00:30:53;;;;;;;34.13;22.33;;;;;;;8.35;55.83;102744.41;3576822;40;20126;-61
2022/03/23 00:33:21;;;;;;;36.22;22.35;;;;;;;8.33;56.65;102746.22;3578410;40;20302;-63
2022/03/23 00:35:49;;;;;;;36.65;21.67;;;;;;;8.30;56.48;102736.44;3574350;40;20122;-62
2022/03/23 00:38:16;;;;;;;33.85;21.85;;;;;;;8.30;56.29;102740.94;3574460;40;20056;-62
2022/03/23 00:40:44;;;;;;;37.97;22.00;;;;;;;8.32;56.48;102734.63;3578573;40;20464;-62
2022/03/23 00:43:11;;;;;;;36.95;21.88;;;;;;;8.32;56.71;102742.66;3578388;40;20379;-62
2022/03/23 00:45:38;;;;;;;38.05;21.65;;;;;;;8.32;56.89;102745.34;3578013;40;20102;-63
2022/03/23 00:48:04;;;;;;;37.22;22.65;;;;;;;8.31;57.13;102742.72;3578020;40;20068;-63
2022/03/23 00:50:31;;;;;;;33.38;21.88;;;;;;;8.29;56.33;102739.19;3576646;40;20101;-62
2022/03/23 00:52:56;;;;;;;37.67;21.52;;;;;;;8.26;56.64;102741.94;3577578;40;20162;-62
2022/03/23 00:55:22;;;;;;;41.95;21.55;;;;;;;8.19;56.83;102743.84;3577642;40;20044;-62
2022/03/23 00:57:48;;;;;;;37.25;21.27;;;;;;;7.87;57.12;102704.34;3578529;40;20108;-62
2022/03/23 01:00:20;;;;;;;40.67;22.20;;;;;;;8.05;57.64;102740.56;3579450;40;20287;-62
2022/03/23 01:02:46;;;;;;;35.75;21.58;;;;;;;7.98;57.94;102734.47;3577094;40;20295;-62
2022/03/23 01:05:14;;;;;;;34.78;20.88;;;;;;;8.00;57.81;102738.00;3580511;40;20124;-63
2022/03/23 01:07:42;;;;;;;39.75;21.23;;;;;;;8.01;57.80;102734.41;3577305;40;20072;-62
2022/03/23 01:10:11;;;;;;;39.22;21.60;;;;;;;7.99;57.89;102725.53;3574820;40;20062;-62
2022/03/23 01:12:39;;;;;;;39.92;23.45;;;;;;;7.96;57.82;102730.94;3577873;40;20491;-62
2022/03/23 01:15:06;;;;;;;31.58;21.40;;;;;;;7.96;58.23;102728.28;3578497;40;20055;-63
2022/03/23 01:17:32;;;;;;;34.20;20.50;;;;;;;7.95;57.70;102728.28;3578308;40;20064;-62
2022/03/23 01:19:58;;;;;;;34.00;21.55;;;;;;;7.95;57.49;102733.63;3585709;40;20406;-62
2022/03/23 01:22:23;;;;;;;41.22;22.13;;;;;;;7.90;57.52;102736.41;3580678;40;20056;-62
2022/03/23 01:24:49;;;;;;;35.05;21.67;;;;;;;7.85;57.80;102732.94;3578751;40;20057;-64
2022/03/23 01:27:15;;;;;;;35.63;22.30;;;;;;;7.80;58.33;102734.81;3578621;40;20050;-62
2022/03/23 01:29:40;;;;;;;39.50;21.95;;;;;;;7.74;58.24;102725.13;3576852;40;20071;-63
2022/03/23 01:32:08;;;;;;;37.28;21.88;;;;;;;7.75;58.22;102726.00;3579167;40;20053;-62
2022/03/23 01:34:33;;;;;;;38.05;22.80;;;;;;;7.74;58.12;102724.22;3577324;40;20052;-62
2022/03/23 01:36:59;;;;;;;35.75;21.73;;;;;;;7.71;58.11;102721.59;3579441;40;20049;-62
2022/03/23 01:39:25;;;;;;;36.78;22.90;;;;;;;7.68;58.50;102714.53;3579505;40;20060;-62
2022/03/23 01:41:50;;;;;;;30.67;20.58;;;;;;;7.65;58.46;102714.59;3578093;40;20049;-62
2022/03/23 01:44:23;;;;;;;34.97;21.83;;;;;;;7.62;58.56;102715.53;3580330;40;20379;-62
2022/03/23 01:47:10;;;;;;;33.17;22.42;;;;;;;7.57;58.22;102716.53;3580978;40;20049;-62
2022/03/23 01:49:40;;;;;;;36.83;21.50;;;;;;;7.49;58.66;102714.00;3574791;40;20064;-61
2022/03/23 01:52:09;;;;;;;31.90;21.35;;;;;;;7.47;59.02;102710.47;3577452;40;20060;-62
2022/03/23 01:54:37;;;;;;;36.78;22.75;;;;;;;7.45;58.69;102709.59;3578397;40;20146;-62
2022/03/23 01:57:06;;;;;;;33.35;22.50;;;;;;;7.43;58.63;102714.13;3576226;40;20045;-62
2022/03/23 01:59:34;;;;;;;39.80;24.52;;;;;;;7.40;59.05;102711.50;3577530;40;20044;-62
2022/03/23 02:02:00;;;;;;;40.90;22.80;;;;;;;7.25;58.44;102688.56;3577151;40;20294;-62
2022/03/23 02:04:26;;;;;;;43.58;24.33;;;;;;;7.32;58.56;102705.41;3579203;40;20044;-62
2022/03/23 02:06:52;;;;;;;40.90;23.15;;;;;;;7.25;58.73;102706.41;3577383;40;20392;-62
2022/03/23 02:09:19;;;;;;;36.20;22.45;;;;;;;7.18;58.69;102703.84;3577314;40;20058;-63
2022/03/23 02:11:47;;;;;;;37.22;23.02;;;;;;;7.11;59.40;102707.56;3578124;40;20085;-62
2022/03/23 02:14:13;;;;;;;36.50;23.02;;;;;;;7.05;59.61;102715.69;3579564;40;20056;-62
2022/03/23 02:16:45;;;;;;;36.42;23.40;;;;;;;7.01;59.84;102705.03;3578064;40;20373;-62
2022/03/23 02:19:12;;;;;;;40.03;23.52;;;;;;;6.96;60.24;102710.47;3579784;40;20079;-61
2022/03/23 02:21:42;;;;;;;36.33;23.25;;;;;;;6.92;60.25;102708.78;3578822;40;20068;-62
2022/03/23 02:24:09;;;;;;;37.55;24.65;;;;;;;6.92;60.09;102709.66;3577311;40;20402;-62
2022/03/23 02:26:37;;;;;;;40.08;24.63;;;;;;;6.94;59.98;102714.97;3576332;40;20296;-62
2022/03/23 02:29:04;;;;;;;34.95;23.13;;;;;;;6.91;60.51;102710.56;3578250;40;20059;-62
2022/03/23 02:31:31;;;;;;;38.35;23.75;;;;;;;6.91;59.79;102720.34;3579891;40;20052;-63
2022/03/23 02:33:57;;;;;;;41.55;24.65;;;;;;;6.87;60.32;102714.16;3579140;40;20423;-62
2022/03/23 02:36:22;;;;;;;37.97;23.70;;;;;;;6.88;60.06;102710.63;3574364;40;20151;-62
2022/03/23 02:38:48;;;;;;;37.78;24.00;;;;;;;6.84;60.67;102708.88;3575480;40;20087;-62
2022/03/23 02:41:14;;;;;;;40.25;24.05;;;;;;;6.86;60.44;102706.19;3576029;40;20156;-63
2022/03/23 02:43:40;;;;;;;37.20;23.85;;;;;;;6.81;60.40;102705.38;3576468;40;20063;-63
2022/03/23 02:46:16;;;;;;;42.45;23.45;;;;;;;6.80;60.33;102712.50;3579599;40;20056;-62
2022/03/23 02:48:43;;;;;;;40.75;24.13;;;;;;;6.73;60.79;102701.03;3578224;40;20071;-62
2022/03/23 02:51:08;;;;;;;34.88;23.08;;;;;;;6.68;61.05;102692.19;3577671;40;20392;-62
2022/03/23 03:02:22;;;;;;;39.75;23.15;;;;;;;6.46;62.49;102710.34;3577702;40;20059;-62
2022/03/23 03:04:51;;;;;;;37.45;23.05;;;;;;;6.42;62.63;102707.75;3575702;40;20048;-62
2022/03/23 03:07:18;;;;;;;37.53;22.63;;;;;;;6.39;62.69;102706.00;3577818;40;20305;-62
2022/03/23 03:09:45;;;;;;;34.67;22.67;;;;;;;6.39;62.43;102707.78;3580949;40;20055;-62
2022/03/23 03:12:11;;;;;;;37.55;22.25;;;;;;;6.27;62.11;102685.69;3577186;40;20122;-62
2022/03/23 03:14:41;;;;;;;38.67;23.45;;;;;;;6.39;62.59;102707.78;3574511;40;20358;-62
2022/03/23 03:17:07;;;;;;;35.10;23.10;;;;;;;6.33;61.85;102699.88;3578122;40;20057;-62
2022/03/23 03:19:36;;;;;;;32.70;22.75;;;;;;;6.35;61.84;102704.28;3577900;40;20087;-62
2022/03/23 03:22:05;;;;;;;39.45;22.55;;;;;;;6.03;62.55;102643.31;3579063;40;20049;-61
2022/03/23 03:24:30;;;;;;;37.60;24.38;;;;;;;6.40;62.08;102712.22;3578297;40;20064;-62
2022/03/23 03:26:56;;;;;;;33.78;22.08;;;;;;;6.38;61.88;102703.38;3576773;40;20063;-62
2022/03/23 03:29:23;;;;;;;33.38;22.65;;;;;;;6.38;61.81;102714.06;3579246;40;20048;-62
2022/03/23 03:31:50;;;;;;;34.50;21.42;;;;;;;6.35;62.28;102716.75;3577358;40;20057;-61
2022/03/23 03:34:16;;;;;;;38.92;22.55;;;;;;;6.18;61.94;102684.94;3577827;40;20063;-62
2022/03/23 03:36:42;;;;;;;42.42;23.63;;;;;;;6.35;61.72;102714.09;3577236;40;20099;-62
2022/03/23 03:39:08;;;;;;;36.78;23.23;;;;;;;6.23;61.72;102691.09;3580176;40;20059;-62
2022/03/23 03:41:35;;;;;;;39.47;23.60;;;;;;;6.30;60.96;102710.59;3576496;40;20410;-62
2022/03/23 03:44:01;;;;;;;42.60;24.27;;;;;;;6.30;61.52;102716.81;3577288;40;20283;-62
2022/03/23 03:46:27;;;;;;;39.40;24.42;;;;;;;6.25;61.47;102710.66;3576115;40;20076;-62
2022/03/23 03:48:52;;;;;;;40.53;24.52;;;;;;;6.24;61.51;102714.22;3576475;40;20096;-62
2022/03/23 03:51:18;;;;;;;40.95;23.48;;;;;;;6.21;61.74;102717.81;3576213;40;20387;-62
2022/03/23 03:53:44;;;;;;;35.55;23.55;;;;;;;6.20;62.29;102718.72;3577978;40;20065;-61
2022/03/23 03:56:10;;;;;;;39.65;23.92;;;;;;;6.17;61.71;102721.44;3579115;40;20060;-62
2022/03/23 03:58:38;;;;;;;44.97;24.60;;;;;;;6.14;61.84;102716.13;3574626;40;20061;-62
2022/03/23 04:01:05;;;;;;;39.35;24.08;;;;;;;5.96;61.71;102692.34;3578783;40;20395;-63
2022/03/23 04:03:30;;;;;;;40.17;24.25;;;;;;;6.11;61.95;102712.63;3576361;40;20058;-62
2022/03/23 04:05:57;;;;;;;38.03;24.00;;;;;;;6.11;61.70;102720.63;3577208;40;20060;-62
2022/03/23 04:08:23;;;;;;;36.72;23.85;;;;;;;6.09;61.61;102718.00;3575230;40;20365;-62
2022/03/23 04:10:48;;;;;;;36.80;23.92;;;;;;;6.09;61.56;102719.75;3576446;40;20060;-62
2022/03/23 04:13:14;;;;;;;38.45;23.85;;;;;;;5.85;61.57;102681.78;3573557;40;20052;-62
2022/03/23 04:15:39;;;;;;;37.97;25.05;;;;;;;6.03;61.25;102715.41;3574584;40;20064;-62
2022/03/23 04:18:05;;;;;;;38.00;23.60;;;;;;;6.03;61.18;102718.94;3576206;40;20057;-62
2022/03/23 04:20:31;;;;;;;38.03;25.15;;;;;;;6.05;60.86;102727.81;3576739;40;20145;-62
2022/03/23 04:22:57;;;;;;;37.60;23.88;;;;;;;6.03;61.11;102723.41;3577348;40;20407;-62
2022/03/23 04:25:23;;;;;;;41.13;23.63;;;;;;;6.04;60.92;102725.16;3579694;40;20435;-62
2022/03/23 04:27:52;;;;;;;37.85;24.38;;;;;;;6.03;61.06;102723.41;3573961;40;20064;-62
2022/03/23 04:30:21;;;;;;;43.72;25.50;;;;;;;6.00;61.16;102720.78;3576475;40;20118;-62
2022/03/23 04:32:49;;;;;;;39.70;24.27;;;;;;;6.00;61.35;102720.78;3576380;40;20127;-63
2022/03/23 04:35:15;;;;;;;35.63;24.50;;;;;;;5.96;61.53;102713.69;3578247;40;20580;-62
2022/03/23 04:37:43;;;;;;;41.50;25.05;;;;;;;5.92;61.86;102722.59;3576639;40;20060;-62
2022/03/23 04:40:14;;;;;;;41.90;25.83;;;;;;;5.94;62.11;102719.06;3578285;40;20048;-62
2022/03/23 04:42:40;;;;;;;36.88;24.33;;;;;;;5.98;62.12;102725.25;3575493;40;20056;-62
2022/03/23 04:45:08;;;;;;;41.35;25.92;;;;;;;5.96;62.44;102727.03;3578250;40;20127;-62
2022/03/23 04:47:34;;;;;;;41.47;26.40;;;;;;;6.00;62.14;102727.00;3576921;40;20547;-62
2022/03/23 04:50:02;;;;;;;39.30;24.88;;;;;;;5.86;62.03;102704.00;3576879;40;20048;-62
2022/03/23 04:52:29;;;;;;;39.95;25.85;;;;;;;5.92;61.77;102723.47;3577802;40;20055;-62
2022/03/23 04:54:56;;;;;;;47.15;26.65;;;;;;;5.93;62.75;102737.75;3579066;40;20402;-62
2022/03/23 04:57:27;;;;;;;40.50;25.42;;;;;;;5.88;63.18;102735.09;3581957;40;20050;-62
2022/03/23 04:59:54;;;;;;;45.42;25.88;;;;;;;5.86;63.67;102749.38;3578821;40;20395;-62
2022/03/23 05:02:20;;;;;;;42.95;25.67;;;;;;;5.82;63.75;102746.72;3579428;40;20055;-62
2022/03/23 05:04:46;;;;;;;42.78;25.48;;;;;;;5.76;63.98;102749.47;3577679;40;20053;-62
2022/03/23 05:07:13;;;;;;;40.75;25.25;;;;;;;5.73;63.93;102757.50;3580114;40;20056;-62
2022/03/23 05:09:39;;;;;;;41.15;24.50;;;;;;;5.48;63.87;102715.97;3579518;40;20091;-62
2022/03/23 05:12:05;;;;;;;39.17;24.48;;;;;;;5.66;64.30;102763.81;3577629;40;20122;-62
2022/03/23 05:14:31;;;;;;;43.70;24.70;;;;;;;5.63;64.04;102760.28;3588183;40;20045;-63
2022/03/23 05:16:57;;;;;;;38.97;25.08;;;;;;;5.58;64.22;102757.66;3578424;40;20056;-63
2022/03/23 05:19:23;;;;;;;38.45;26.05;;;;;;;5.51;64.19;102763.97;3578183;40;20048;-63
2022/03/23 05:21:49;;;;;;;37.92;25.38;;;;;;;5.49;63.93;102758.66;3577170;40;20056;-62
2022/03/23 05:24:14;;;;;;;42.55;26.00;;;;;;;5.49;64.29;102760.44;3577971;40;20060;-62
2022/03/23 05:26:40;;;;;;;47.53;26.77;;;;;;;5.43;64.41;102752.50;3578837;40;20124;-63
2022/03/23 05:29:06;;;;;;;41.78;27.92;;;;;;;5.37;64.27;102755.22;3575656;40;20052;-63
2022/03/23 05:31:31;;;;;;;43.08;27.33;;;;;;;5.40;64.37;102768.53;3577463;40;20587;-63
2022/03/23 05:33:57;;;;;;;43.90;26.73;;;;;;;5.37;64.98;102773.88;3577867;40;20303;-63
2022/03/23 05:36:23;;;;;;;43.67;27.25;;;;;;;5.37;64.54;102768.56;3578183;40;20048;-62
2022/03/23 05:38:48;;;;;;;47.15;28.48;;;;;;;5.34;64.32;102765.00;3577634;40;20394;-62
2022/03/23 05:41:14;;;;;;;49.67;27.17;;;;;;;5.35;64.75;102765.88;3576236;40;20318;-62
2022/03/23 05:43:40;;;;;;;43.65;28.08;;;;;;;5.37;63.86;102773.88;3576991;40;20056;-63
2022/03/23 05:46:05;;;;;;;43.38;27.42;;;;;;;5.34;64.23;102766.78;3580536;40;20104;-63
2022/03/23 05:48:31;;;;;;;41.35;27.75;;;;;;;5.31;64.65;102775.69;3577974;40;20306;-61
2022/03/23 05:50:57;;;;;;;42.63;26.60;;;;;;;5.30;64.39;102768.59;3576373;40;20051;-61
2022/03/23 05:53:22;;;;;;;40.50;27.80;;;;;;;5.23;64.48;102765.97;3577341;40;20051;-61
2022/03/23 05:55:48;;;;;;;41.95;27.23;;;;;;;5.28;65.16;102780.16;3578872;40;20058;-61
2022/03/23 05:58:14;;;;;;;48.67;26.88;;;;;;;5.26;64.91;102777.50;3578284;40;20048;-61
2022/03/23 06:00:40;;;;;;;42.42;27.00;;;;;;;5.26;64.64;102777.50;3581129;40;20049;-61
2022/03/23 06:03:05;;;;;;;43.10;27.00;;;;;;;5.23;64.74;102773.97;3579267;40;20059;-61
2022/03/23 06:05:31;;;;;;;45.33;27.00;;;;;;;5.26;64.80;102780.16;3578259;40;20064;-61
2022/03/23 06:07:56;;;;;;;45.10;28.38;;;;;;;5.28;65.39;102780.16;3578145;40;20055;-61
2022/03/23 06:10:22;;;;;;;47.85;27.88;;;;;;;5.29;65.82;102782.81;3577325;40;20058;-61
2022/03/23 06:12:48;;;;;;;45.80;27.00;;;;;;;5.30;65.22;102787.28;3585464;40;20060;-62
2022/03/23 06:15:13;;;;;;;44.63;28.20;;;;;;;5.41;65.80;102781.81;3579291;40;20272;-61
2022/03/23 06:17:39;;;;;;;44.35;26.65;;;;;;;5.56;65.22;102791.47;3577315;40;20129;-61
2022/03/23 06:20:07;;;;;;;43.92;28.10;;;;;;;5.59;64.21;102748.78;3582001;40;20119;-61
2022/03/23 06:22:33;;;;;;;41.35;26.60;;;;;;;5.96;63.20;102775.06;3577845;40;20064;-61
2022/03/23 06:24:58;;;;;;;45.67;27.63;;;;;;;6.10;63.27;102778.50;3579257;40;20318;-61
2022/03/23 06:27:25;;;;;;;41.85;25.77;;;;;;;6.21;63.16;102783.69;3579013;40;20068;-61
2022/03/23 06:29:51;;;;;;;43.40;27.77;;;;;;;6.27;62.80;102780.94;3581682;40;20098;-61
2022/03/23 06:32:17;;;;;;;41.90;27.25;;;;;;;6.36;62.73;102782.63;3577509;40;20060;-61
2022/03/23 06:34:43;;;;;;;45.60;28.17;;;;;;;6.44;62.56;102788.75;3575730;40;20091;-62
2022/03/23 06:37:09;;;;;;;45.50;26.40;;;;;;;6.49;62.31;102781.56;3579708;40;20381;-61
2022/03/23 06:39:35;;;;;;;42.35;27.05;;;;;;;6.59;62.33;102793.00;3577579;40;20060;-62
2022/03/23 06:42:01;;;;;;;43.03;26.98;;;;;;;6.69;61.93;102790.19;3577547;40;20457;-61
2022/03/23 06:44:27;;;;;;;47.75;27.98;;;;;;;6.83;62.12;102798.00;3579123;40;20052;-62
2022/03/23 06:46:53;;;;;;;45.40;27.90;;;;;;;6.97;62.19;102800.47;3577745;40;20088;-61
2022/03/23 06:49:19;;;;;;;47.13;28.13;;;;;;;7.15;61.20;102801.97;3578143;40;20052;-61
2022/03/23 06:51:46;;;;;;;44.17;27.17;;;;;;;7.35;61.91;102804.31;3576019;40;20084;-61
2022/03/23 06:54:11;;;;;;;45.17;27.60;;;;;;;7.51;60.71;102802.28;3580925;40;20356;-61
2022/03/23 06:56:37;;;;;;;45.28;28.23;;;;;;;7.66;59.50;102812.72;3577870;40;20065;-62
2022/03/23 06:59:04;;;;;;;44.25;28.35;;;;;;;7.70;58.45;102781.41;3579373;40;20068;-61
2022/03/23 07:01:30;;;;;;;46.83;28.58;;;;;;;7.94;58.38;102805.06;3577779;40;20102;-62
2022/03/23 07:03:55;;;;;;;49.28;27.00;;;;;;;7.93;58.38;102784.56;3578656;40;20062;-62
2022/03/23 07:06:21;;;;;;;44.17;28.33;;;;;;;8.09;58.97;102807.44;3577354;40;20048;-62
2022/03/23 07:11:31;;;;;;;40.50;25.30;;;;;;;8.39;55.24;102802.41;3579004;40;20074;-62
2022/03/23 07:13:57;;;;;;;42.97;26.15;;;;;;;8.61;53.69;102808.19;3580364;40;20072;-62
2022/03/23 07:16:23;;;;;;;43.92;25.95;;;;;;;8.78;53.13;102814.03;3579078;40;20393;-62
2022/03/23 07:18:49;;;;;;;48.13;26.65;;;;;;;9.01;53.42;102810.88;3580183;40;20347;-62
2022/03/23 07:21:16;;;;;;;44.72;27.85;;;;;;;9.24;52.29;102817.47;3581142;40;20052;-62
2022/03/23 07:23:41;;;;;;;43.28;27.00;;;;;;;9.49;51.85;102810.59;3579647;40;20048;-62
2022/03/23 07:26:08;;;;;;;41.05;27.00;;;;;;;9.66;52.45;102785.97;3580034;40;20063;-62
2022/03/23 07:28:34;;;;;;;46.10;26.38;;;;;;;10.15;52.51;102814.19;3579448;40;20048;-62
2022/03/23 07:31:00;;;;;;;55.13;27.02;;;;;;;10.27;49.58;102780.72;3579867;40;20069;-62
2022/03/23 07:33:26;;;;;;;49.35;25.33;;;;;;;10.82;48.65;102811.34;3578595;40;20064;-63
2022/03/23 07:35:52;;;;;;;44.45;25.48;;;;;;;11.12;47.10;102813.97;3580669;40;20071;-62
2022/03/23 07:38:19;;;;;;;42.25;25.50;;;;;;;11.32;46.75;102800.78;3578797;40;20048;-60
2022/03/23 07:40:45;;;;;;;38.75;26.38;;;;;;;11.73;45.24;102813.72;3580174;40;20052;-62
2022/03/23 07:43:10;;;;;;;39.67;27.33;;;;;;;11.95;45.23;102816.59;3581078;40;20059;-61
2022/03/23 07:45:36;;;;;;;38.47;24.92;;;;;;;12.17;44.39;102820.25;3579575;40;20064;-62
2022/03/23 07:48:02;;;;;;;44.88;25.85;;;;;;;12.45;43.77;102806.63;3579640;40;20111;-64
2022/03/23 07:50:28;;;;;;;33.72;25.17;;;;;;;12.71;43.41;102802.06;3579812;40;20054;-62
2022/03/23 07:52:54;;;;;;;34.15;25.52;;;;;;;13.06;42.90;102830.34;3578382;40;20063;-62
2022/03/23 07:55:20;;;;;;;33.80;24.33;;;;;;;13.34;41.81;102831.97;3580400;40;20056;-62
2022/03/23 07:57:45;;;;;;;40.03;25.60;;;;;;;13.56;40.97;102829.25;3580466;40;20072;-61
2022/03/23 08:00:11;;;;;;;36.65;25.95;;;;;;;13.79;40.00;102825.53;3580015;40;20086;-61
2022/03/23 08:02:37;;;;;;;32.97;25.77;;;;;;;14.16;40.70;102843.75;3578988;40;20127;-62
2022/03/23 08:05:05;;;;;;;36.88;26.88;;;;;;;14.38;39.62;102841.81;3579923;40;20060;-63
2022/03/23 08:07:31;;;;;;;36.47;25.27;;;;;;;14.48;39.00;102822.47;3579157;40;20068;-63
2022/03/23 08:09:56;;;;;;;37.35;25.25;;;;;;;14.74;38.35;102840.22;3579629;40;20074;-62
2022/03/23 08:12:22;;;;;;;33.78;24.55;;;;;;;14.73;37.39;102793.31;3578390;40;20422;-63
2022/03/23 08:14:47;;;;;;;36.03;24.90;;;;;;;15.28;36.42;102836.66;3577401;40;20407;-63
2022/03/23 08:17:13;;;;;;;42.55;25.17;;;;;;;15.42;36.14;102841.41;3578699;40;20051;-60
2022/03/23 08:19:39;;;;;;;33.00;24.95;;;;;;;15.61;35.58;102844.06;3578242;40;20052;-61
2022/03/23 08:22:05;;;;;;;35.65;26.10;;;;;;;15.76;35.35;102835.19;3580682;40;20048;-61
2022/03/23 08:24:31;;;;;;;35.05;25.40;;;;;;;15.93;35.76;102830.72;3578583;40;20507;-61
2022/03/23 08:26:58;;;;;;;34.88;24.67;;;;;;;16.04;34.78;102833.72;3580016;40;20133;-61
2022/03/23 08:29:24;;;;;;;35.60;26.33;;;;;;;16.18;35.11;102835.72;3580769;40;20048;-61
2022/03/23 08:31:50;;;;;;;34.47;24.75;;;;;;;16.32;35.00;102834.97;3580719;40;20370;-61
2022/03/23 08:34:16;;;;;;;35.55;25.55;;;;;;;16.55;33.33;102836.44;3581187;40;20064;-61
2022/03/23 08:36:41;;;;;;;36.60;25.67;;;;;;;16.80;33.77;102841.41;3579517;40;20057;-61
2022/03/23 08:39:07;;;;;;;39.03;25.67;;;;;;;16.97;33.45;102835.91;3580445;40;20063;-62
2022/03/23 08:41:33;;;;;;;34.13;26.10;;;;;;;17.24;33.02;102836.16;3579440;40;20048;-62
2022/03/23 08:43:58;;;;;;;43.78;27.05;;;;;;;17.46;34.66;102840.34;3582016;40;20068;-62
2022/03/23 08:46:25;;;;;;;36.72;26.42;;;;;;;17.44;32.21;102820.53;3582052;40;20460;-62
2022/03/23 08:48:52;;;;;;;36.30;26.02;;;;;;;17.72;32.47;102839.66;3580962;40;20057;-62
2022/03/23 08:51:19;;;;;;;35.42;25.60;;;;;;;17.87;31.68;102843.34;3579415;40;20284;-62
2022/03/23 08:53:45;;;;;;;36.88;25.60;;;;;;;18.10;31.70;102842.81;3581407;40;20064;-61
2022/03/23 08:56:11;;;;;;;37.28;26.73;;;;;;;18.42;30.88;102833.63;3581157;40;20100;-62
2022/03/23 08:58:39;;;;;;;33.03;26.25;;;;;;;18.53;30.31;102833.81;3579494;40;20172;-62
2022/03/23 09:01:06;;;;;;;38.97;26.98;;;;;;;18.36;32.37;102810.38;3580620;40;20279;-62
2022/03/23 09:03:32;;;;;;;38.35;27.27;;;;;;;18.69;31.05;102842.75;3579503;40;20408;-61
2022/03/23 09:05:58;;;;;;;38.80;26.67;;;;;;;18.74;31.55;102834.31;3580625;40;20411;-62
2022/03/23 09:08:25;;;;;;;35.80;24.23;;;;;;;18.91;28.70;102836.84;3579828;40;20074;-61
2022/03/23 09:10:51;;;;;;;36.97;24.20;;;;;;;19.02;28.94;102839.72;3579607;40;20079;-62
2022/03/23 09:13:17;;;;;;;33.38;24.00;;;;;;;19.12;27.75;102840.00;3581674;40;20395;-62
2022/03/23 09:15:42;;;;;;;42.83;26.33;;;;;;;19.24;28.97;102830.13;3579263;40;20052;-62
2022/03/23 09:18:08;;;;;;;39.13;25.98;;;;;;;19.44;29.21;102836.97;3576598;40;20458;-62
2022/03/23 09:20:34;;;;;;;34.40;26.00;;;;;;;19.38;29.64;102843.72;3579742;40;20107;-61
2022/03/23 09:23:00;;;;;;;31.90;24.50;;;;;;;19.58;27.55;102844.22;3582066;40;20100;-64
2022/03/23 09:25:27;;;;;;;36.78;25.35;;;;;;;19.74;27.75;102838.63;3580006;40;20082;-62
2022/03/23 09:27:53;;;;;;;36.15;25.90;;;;;;;19.82;27.81;102836.25;3579603;40;20410;-62
2022/03/23 09:30:19;;;;;;;29.52;24.00;;;;;;;19.90;26.75;102842.06;3579375;40;20048;-62
2022/03/23 09:32:47;;;;;;;31.10;22.30;;;;;;;20.04;26.19;102839.22;3581318;40;20060;-62
2022/03/23 09:35:16;;;;;;;29.02;23.30;;;;;;;20.11;25.94;102840.56;3579828;40;20048;-61
2022/03/23 09:37:48;;;;;;;32.22;24.45;;;;;;;20.22;25.97;102836.19;3578193;40;20067;-62
2022/03/23 09:40:25;;;;;;;31.93;24.77;;;;;;;20.50;26.08;102835.97;3578837;40;20040;-61
2022/03/23 09:42:54;;;;;;;31.10;24.05;;;;;;;20.73;26.76;102839.78;3581907;40;20048;-61
2022/03/23 09:48:09;;;;;;;30.90;23.33;;;;;;;21.09;26.09;102838.94;3582738;40;20351;-61
2022/03/23 09:50:39;;;;;;;30.55;23.27;;;;;;;21.10;24.29;102840.69;3580278;40;20393;-61
2022/03/23 09:53:05;;;;;;;30.55;23.77;;;;;;;21.04;23.05;102846.63;3581907;40;20058;-61
2022/03/23 09:55:32;;;;;;;32.67;24.25;;;;;;;21.05;24.22;102844.75;3578340;40;20091;-62
2022/03/23 09:58:03;;;;;;;29.55;22.75;;;;;;;21.03;24.93;102842.16;3582516;40;20061;-61
2022/03/23 10:00:41;;;;;;;29.63;23.02;;;;;;;21.00;24.09;102839.63;3582241;40;20079;-62
2022/03/23 10:03:26;;;;;;;26.30;21.13;;;;;;;21.07;24.74;102840.06;3579808;40;20052;-62
2022/03/23 10:06:28;;;;;;;30.45;23.60;;;;;;;21.32;23.13;102847.28;3581042;40;20315;-61
2022/03/23 10:09:40;;;;;;;32.75;23.08;;;;;;;21.56;23.51;102848.19;3581267;40;20079;-61
2022/03/23 10:12:50;;;;;;;29.02;22.63;;;;;;;21.63;23.57;102842.22;3581829;40;20032;-62
2022/03/23 10:16:10;;;;;;;30.23;23.42;;;;;;;21.73;23.60;102854.25;3582745;40;20063;-62
2022/03/23 10:18:56;;;;;;;32.60;24.08;;;;;;;21.86;24.60;102852.31;3579575;40;20056;-62
2022/03/23 10:21:31;;;;;;;29.17;24.15;;;;;;;21.89;24.14;102843.84;3581547;40;20326;-61
2022/03/23 10:24:00;;;;;;;30.98;23.80;;;;;;;22.04;24.31;102852.72;3582072;40;20407;-62
2022/03/23 10:26:29;;;;;;;27.38;22.98;;;;;;;21.96;23.56;102855.19;3579718;40;20426;-61
2022/03/23 10:28:56;;;;;;;30.13;24.30;;;;;;;22.00;23.47;102846.59;3581009;40;20112;-62
2022/03/23 10:31:27;;;;;;;30.75;24.50;;;;;;;22.11;23.11;102839.44;3579275;40;20064;-62
2022/03/23 10:33:57;;;;;;;29.23;23.60;;;;;;;22.19;23.28;102831.50;3581054;40;20068;-61
2022/03/23 10:36:27;;;;;;;31.05;22.85;;;;;;;22.28;23.14;102822.53;3579848;40;20062;-62
2022/03/23 10:39:00;;;;;;;31.25;24.05;;;;;;;22.32;22.43;102829.50;3580967;40;20342;-62
2022/03/23 10:41:27;;;;;;;26.65;22.85;;;;;;;22.48;23.75;102824.53;3577626;40;20049;-62
2022/03/23 10:43:53;;;;;;;27.92;21.98;;;;;;;22.44;23.09;102831.28;3581115;40;20088;-60
2022/03/23 10:46:20;;;;;;;30.23;23.02;;;;;;;22.40;23.37;102824.31;3580791;40;20056;-60
2022/03/23 10:48:59;;;;;;;28.67;22.48;;;;;;;22.56;23.67;102820.31;3578645;40;20068;-60
2022/03/23 10:51:31;;;;;;;25.90;21.50;;;;;;;22.74;24.00;102820.66;3581183;40;20050;-60
2022/03/23 10:53:58;;;;;;;28.25;21.83;;;;;;;22.73;21.34;102822.53;3580681;40;20581;-60
2022/03/23 10:56:38;;;;;;;29.25;21.48;;;;;;;22.74;22.86;102818.81;3581123;40;20149;-60
2022/03/23 10:59:27;;;;;;;28.10;21.42;;;;;;;22.83;21.50;102817.19;3580977;40;20129;-61
2022/03/23 11:02:08;;;;;;;28.17;21.98;;;;;;;23.04;22.13;102831.03;3580668;40;20075;-61
2022/03/23 11:04:53;;;;;;;26.17;21.30;;;;;;;23.27;20.88;102821.72;3577658;40;20109;-61
2022/03/23 11:07:38;;;;;;;36.95;21.20;;;;;;;23.58;20.42;102824.63;3580894;40;20087;-61
2022/03/23 11:15:49;;;;;;;22.70;20.10;;;;;;;23.89;19.55;102809.16;3578815;40;20140;-61
2022/03/23 11:18:20;;;;;;;27.67;19.75;;;;;;;24.04;19.58;102816.06;3580781;40;20067;-61
2022/03/23 11:20:52;;;;;;;24.77;19.58;;;;;;;24.15;18.93;102815.09;3579229;40;20048;-61
2022/03/23 11:23:33;;;;;;;26.40;20.40;;;;;;;24.08;18.96;102813.91;3579861;40;20052;-61
2022/03/23 11:26:05;;;;;;;26.00;20.90;;;;;;;24.11;18.98;102810.03;3579083;40;20044;-61
2022/03/23 11:28:36;;;;;;;24.75;19.83;;;;;;;24.15;19.67;102809.59;3579855;40;20055;-61
2022/03/23 11:31:06;;;;;;;24.35;18.67;;;;;;;24.11;19.30;102815.50;3581378;40;20049;-60
2022/03/23 11:33:34;;;;;;;23.85;20.58;;;;;;;24.06;20.00;102807.66;3580167;40;20064;-61
2022/03/23 11:36:03;;;;;;;24.58;20.67;;;;;;;24.34;20.80;102808.84;3579607;40;20407;-61
2022/03/23 11:38:29;;;;;;;25.67;19.55;;;;;;;24.44;19.11;102809.78;3579784;40;20117;-61